sensor_id;sensor_type;location;lat;lon;timestamp;P1;durP1;ratioP1;P2;durP2;ratioP2
54139;SDS011;40046;53.254;5.900;2024-02-14T00:01:41;14.10;;;8.57;;
54139;SDS011;40046;53.254;5.900;2024-02-14T00:04:08;14.35;;;9.98;;
54139;SDS011;40046;53.254;5.900;2024-02-14T00:06:35;13.80;;;9.75;;
54139;SDS011;40046;53.254;5.900;2024-02-14T00:09:02;11.45;;;8.73;;
54139;SDS011;40046;53.254;5.900;2024-02-14T00:11:28;13.35;;;9.38;;
54139;SDS011;40046;53.254;5.900;2024-02-14T00:13:54;10.07;;;8.52;;
54139;SDS011;40046;53.254;5.900;2024-02-14T00:16:21;10.50;;;8.02;;
54139;SDS011;40046;53.254;5.900;2024-02-14T00:18:47;10.70;;;9.38;;
54139;SDS011;40046;53.254;5.900;2024-02-14T00:21:14;12.55;;;9.25;;
54139;SDS011;40046;53.254;5.900;2024-02-14T00:23:40;12.10;;;9.52;;
54139;SDS011;40046;53.254;5.900;2024-02-14T00:26:06;13.20;;;9.65;;
54139;SDS011;40046;53.254;5.900;2024-02-14T00:28:32;13.02;;;9.20;;
54139;SDS011;40046;53.254;5.900;2024-02-14T00:30:58;10.48;;;9.15;;
54139;SDS011;40046;53.254;5.900;2024-02-14T00:33:25;9.98;;;8.60;;
54139;SDS011;40046;53.254;5.900;2024-02-14T00:35:51;14.75;;;9.45;;
54139;SDS011;40046;53.254;5.900;2024-02-14T00:38:17;12.55;;;9.48;;
54139;SDS011;40046;53.254;5.900;2024-02-14T00:40:43;13.55;;;8.68;;
54139;SDS011;40046;53.254;5.900;2024-02-14T00:43:09;10.57;;;9.25;;
54139;SDS011;40046;53.254;5.900;2024-02-14T00:45:36;11.18;;;9.27;;
54139;SDS011;40046;53.254;5.900;2024-02-14T00:48:03;12.90;;;9.55;;
54139;SDS011;40046;53.254;5.900;2024-02-14T00:50:29;9.85;;;8.85;;
54139;SDS011;40046;53.254;5.900;2024-02-14T00:52:55;11.02;;;9.30;;
54139;SDS011;40046;53.254;5.900;2024-02-14T00:55:22;11.45;;;10.20;;
54139;SDS011;40046;53.254;5.900;2024-02-14T00:57:48;10.90;;;9.13;;
54139;SDS011;40046;53.254;5.900;2024-02-14T01:00:14;11.75;;;9.20;;
54139;SDS011;40046;53.254;5.900;2024-02-14T01:02:42;11.75;;;9.32;;
54139;SDS011;40046;53.254;5.900;2024-02-14T01:05:08;10.65;;;9.15;;
54139;SDS011;40046;53.254;5.900;2024-02-14T01:07:35;10.75;;;9.40;;
54139;SDS011;40046;53.254;5.900;2024-02-14T01:10:01;11.23;;;9.50;;
54139;SDS011;40046;53.254;5.900;2024-02-14T01:12:28;10.32;;;8.77;;
54139;SDS011;40046;53.254;5.900;2024-02-14T01:14:54;10.35;;;9.35;;
54139;SDS011;40046;53.254;5.900;2024-02-14T01:17:21;11.63;;;9.68;;
54139;SDS011;40046;53.254;5.900;2024-02-14T01:19:47;11.00;;;9.90;;
54139;SDS011;40046;53.254;5.900;2024-02-14T01:22:14;13.65;;;9.25;;
54139;SDS011;40046;53.254;5.900;2024-02-14T01:24:44;10.90;;;9.43;;
54139;SDS011;40046;53.254;5.900;2024-02-14T01:27:10;11.95;;;9.70;;
54139;SDS011;40046;53.254;5.900;2024-02-14T01:29:36;12.35;;;9.98;;
54139;SDS011;40046;53.254;5.900;2024-02-14T01:32:03;9.90;;;8.90;;
54139;SDS011;40046;53.254;5.900;2024-02-14T01:34:29;11.07;;;9.38;;
54139;SDS011;40046;53.254;5.900;2024-02-14T01:36:56;11.07;;;9.88;;
54139;SDS011;40046;53.254;5.900;2024-02-14T01:39:22;11.13;;;10.02;;
54139;SDS011;40046;53.254;5.900;2024-02-14T01:41:48;10.63;;;9.52;;
54139;SDS011;40046;53.254;5.900;2024-02-14T01:44:15;11.00;;;9.90;;
54139;SDS011;40046;53.254;5.900;2024-02-14T01:46:42;11.82;;;10.63;;
54139;SDS011;40046;53.254;5.900;2024-02-14T01:49:11;11.18;;;9.73;;
54139;SDS011;40046;53.254;5.900;2024-02-14T01:51:37;11.15;;;9.85;;
54139;SDS011;40046;53.254;5.900;2024-02-14T01:54:04;11.27;;;9.95;;
54139;SDS011;40046;53.254;5.900;2024-02-14T01:56:31;10.77;;;9.65;;
54139;SDS011;40046;53.254;5.900;2024-02-14T01:58:58;12.10;;;10.90;;
54139;SDS011;40046;53.254;5.900;2024-02-14T02:01:24;12.30;;;11.07;;
54139;SDS011;40046;53.254;5.900;2024-02-14T02:03:51;13.32;;;10.77;;
54139;SDS011;40046;53.254;5.900;2024-02-14T02:06:17;12.25;;;11.05;;
54139;SDS011;40046;53.254;5.900;2024-02-14T02:08:43;11.77;;;10.43;;
54139;SDS011;40046;53.254;5.900;2024-02-14T02:11:09;13.10;;;11.63;;
54139;SDS011;40046;53.254;5.900;2024-02-14T02:13:36;12.98;;;11.63;;
54139;SDS011;40046;53.254;5.900;2024-02-14T02:16:04;12.95;;;11.07;;
54139;SDS011;40046;53.254;5.900;2024-02-14T02:18:31;12.38;;;10.85;;
54139;SDS011;40046;53.254;5.900;2024-02-14T02:20:57;12.98;;;10.55;;
54139;SDS011;40046;53.254;5.900;2024-02-14T02:23:23;12.98;;;11.60;;
54139;SDS011;40046;53.254;5.900;2024-02-14T02:25:50;12.52;;;10.43;;
54139;SDS011;40046;53.254;5.900;2024-02-14T02:28:16;12.48;;;10.77;;
54139;SDS011;40046;53.254;5.900;2024-02-14T02:30:42;13.43;;;11.98;;
54139;SDS011;40046;53.254;5.900;2024-02-14T02:33:11;15.85;;;11.82;;
54139;SDS011;40046;53.254;5.900;2024-02-14T02:35:39;14.45;;;12.00;;
54139;SDS011;40046;53.254;5.900;2024-02-14T02:38:07;14.70;;;13.10;;
54139;SDS011;40046;53.254;5.900;2024-02-14T02:40:33;13.23;;;11.80;;
54139;SDS011;40046;53.254;5.900;2024-02-14T02:42:59;15.23;;;12.88;;
54139;SDS011;40046;53.254;5.900;2024-02-14T02:45:25;14.20;;;12.45;;
54139;SDS011;40046;53.254;5.900;2024-02-14T02:47:51;15.95;;;13.98;;
54139;SDS011;40046;53.254;5.900;2024-02-14T02:50:18;13.25;;;11.85;;
54139;SDS011;40046;53.254;5.900;2024-02-14T02:52:44;11.52;;;10.07;;
54139;SDS011;40046;53.254;5.900;2024-02-14T02:55:11;12.75;;;10.82;;
54139;SDS011;40046;53.254;5.900;2024-02-14T02:57:37;13.27;;;11.93;;
54139;SDS011;40046;53.254;5.900;2024-02-14T03:00:06;11.43;;;10.23;;
54139;SDS011;40046;53.254;5.900;2024-02-14T03:02:38;11.13;;;9.73;;
54139;SDS011;40046;53.254;5.900;2024-02-14T03:05:09;13.18;;;9.85;;
54139;SDS011;40046;53.254;5.900;2024-02-14T03:07:43;11.75;;;9.35;;
54139;SDS011;40046;53.254;5.900;2024-02-14T03:10:10;10.60;;;8.77;;
54139;SDS011;40046;53.254;5.900;2024-02-14T03:12:40;10.63;;;9.18;;
54139;SDS011;40046;53.254;5.900;2024-02-14T03:15:06;9.90;;;8.80;;
54139;SDS011;40046;53.254;5.900;2024-02-14T03:17:35;10.43;;;9.30;;
54139;SDS011;40046;53.254;5.900;2024-02-14T03:20:02;10.32;;;8.57;;
54139;SDS011;40046;53.254;5.900;2024-02-14T03:22:32;10.60;;;7.88;;
54139;SDS011;40046;53.254;5.900;2024-02-14T03:24:58;9.52;;;7.40;;
54139;SDS011;40046;53.254;5.900;2024-02-14T03:27:24;10.45;;;8.88;;
54139;SDS011;40046;53.254;5.900;2024-02-14T03:29:52;10.80;;;9.27;;
54139;SDS011;40046;53.254;5.900;2024-02-14T03:32:20;10.48;;;8.40;;
54139;SDS011;40046;53.254;5.900;2024-02-14T03:34:48;11.27;;;9.23;;
54139;SDS011;40046;53.254;5.900;2024-02-14T03:37:14;10.70;;;8.93;;
54139;SDS011;40046;53.254;5.900;2024-02-14T03:39:40;10.80;;;8.65;;
54139;SDS011;40046;53.254;5.900;2024-02-14T03:42:06;11.38;;;9.27;;
54139;SDS011;40046;53.254;5.900;2024-02-14T03:44:33;12.15;;;10.30;;
54139;SDS011;40046;53.254;5.900;2024-02-14T03:46:59;13.10;;;7.93;;
54139;SDS011;40046;53.254;5.900;2024-02-14T03:49:25;9.40;;;6.90;;
54139;SDS011;40046;53.254;5.900;2024-02-14T03:51:52;9.70;;;6.55;;
54139;SDS011;40046;53.254;5.900;2024-02-14T03:54:20;10.20;;;6.68;;
54139;SDS011;40046;53.254;5.900;2024-02-14T03:56:46;9.57;;;6.20;;
54139;SDS011;40046;53.254;5.900;2024-02-14T03:59:12;10.50;;;5.72;;
54139;SDS011;40046;53.254;5.900;2024-02-14T04:01:43;13.55;;;6.65;;
54139;SDS011;40046;53.254;5.900;2024-02-14T04:04:09;13.80;;;6.22;;
54139;SDS011;40046;53.254;5.900;2024-02-14T04:06:36;15.40;;;6.35;;
54139;SDS011;40046;53.254;5.900;2024-02-14T04:09:02;11.40;;;6.18;;
54139;SDS011;40046;53.254;5.900;2024-02-14T04:11:28;7.78;;;5.47;;
54139;SDS011;40046;53.254;5.900;2024-02-14T04:13:54;15.00;;;6.55;;
54139;SDS011;40046;53.254;5.900;2024-02-14T04:16:20;14.40;;;6.18;;
54139;SDS011;40046;53.254;5.900;2024-02-14T04:18:47;14.05;;;7.07;;
54139;SDS011;40046;53.254;5.900;2024-02-14T04:21:13;14.85;;;7.07;;
54139;SDS011;40046;53.254;5.900;2024-02-14T04:23:39;18.17;;;6.85;;
54139;SDS011;40046;53.254;5.900;2024-02-14T04:26:05;16.27;;;6.50;;
54139;SDS011;40046;53.254;5.900;2024-02-14T04:28:33;20.83;;;7.45;;
54139;SDS011;40046;53.254;5.900;2024-02-14T04:30:59;17.98;;;7.68;;
54139;SDS011;40046;53.254;5.900;2024-02-14T04:33:25;16.30;;;7.25;;
54139;SDS011;40046;53.254;5.900;2024-02-14T04:35:51;22.35;;;9.18;;
54139;SDS011;40046;53.254;5.900;2024-02-14T04:38:18;19.70;;;8.80;;
54139;SDS011;40046;53.254;5.900;2024-02-14T04:40:44;19.67;;;9.05;;
54139;SDS011;40046;53.254;5.900;2024-02-14T04:43:11;29.52;;;9.50;;
54139;SDS011;40046;53.254;5.900;2024-02-14T04:45:37;32.70;;;10.88;;
54139;SDS011;40046;53.254;5.900;2024-02-14T04:48:03;27.80;;;8.98;;
54139;SDS011;40046;53.254;5.900;2024-02-14T04:50:29;29.45;;;9.55;;
54139;SDS011;40046;53.254;5.900;2024-02-14T04:52:56;31.95;;;10.25;;
54139;SDS011;40046;53.254;5.900;2024-02-14T04:55:22;34.45;;;9.57;;
54139;SDS011;40046;53.254;5.900;2024-02-14T04:57:48;28.58;;;10.38;;
54139;SDS011;40046;53.254;5.900;2024-02-14T05:00:15;25.30;;;9.13;;
54139;SDS011;40046;53.254;5.900;2024-02-14T05:02:41;34.58;;;11.05;;
54139;SDS011;40046;53.254;5.900;2024-02-14T05:05:07;29.55;;;10.63;;
54139;SDS011;40046;53.254;5.900;2024-02-14T05:07:34;44.28;;;10.45;;
54139;SDS011;40046;53.254;5.900;2024-02-14T05:10:00;37.53;;;11.43;;
54139;SDS011;40046;53.254;5.900;2024-02-14T05:12:26;23.73;;;9.20;;
54139;SDS011;40046;53.254;5.900;2024-02-14T05:14:53;31.52;;;9.73;;
54139;SDS011;40046;53.254;5.900;2024-02-14T05:17:19;37.03;;;8.32;;
54139;SDS011;40046;53.254;5.900;2024-02-14T05:19:45;28.85;;;7.93;;
54139;SDS011;40046;53.254;5.900;2024-02-14T05:22:11;24.05;;;6.30;;
54139;SDS011;40046;53.254;5.900;2024-02-14T05:24:37;20.30;;;6.57;;
54139;SDS011;40046;53.254;5.900;2024-02-14T05:27:04;23.85;;;6.45;;
54139;SDS011;40046;53.254;5.900;2024-02-14T05:29:30;28.38;;;7.43;;
54139;SDS011;40046;53.254;5.900;2024-02-14T05:31:56;36.53;;;9.38;;
54139;SDS011;40046;53.254;5.900;2024-02-14T05:34:23;31.40;;;8.15;;
54139;SDS011;40046;53.254;5.900;2024-02-14T05:36:49;34.03;;;8.60;;
54139;SDS011;40046;53.254;5.900;2024-02-14T05:39:16;37.20;;;9.60;;
54139;SDS011;40046;53.254;5.900;2024-02-14T05:41:42;47.88;;;10.40;;
54139;SDS011;40046;53.254;5.900;2024-02-14T05:44:08;53.25;;;9.85;;
54139;SDS011;40046;53.254;5.900;2024-02-14T05:46:34;47.97;;;9.63;;
54139;SDS011;40046;53.254;5.900;2024-02-14T05:49:01;44.25;;;10.70;;
54139;SDS011;40046;53.254;5.900;2024-02-14T05:51:27;57.40;;;11.18;;
54139;SDS011;40046;53.254;5.900;2024-02-14T05:53:54;58.88;;;8.88;;
54139;SDS011;40046;53.254;5.900;2024-02-14T05:56:20;56.00;;;9.25;;
54139;SDS011;40046;53.254;5.900;2024-02-14T05:58:46;49.35;;;9.70;;
54139;SDS011;40046;53.254;5.900;2024-02-14T06:01:12;56.75;;;10.32;;
54139;SDS011;40046;53.254;5.900;2024-02-14T06:03:40;51.67;;;8.25;;
54139;SDS011;40046;53.254;5.900;2024-02-14T06:06:07;54.42;;;8.52;;
54139;SDS011;40046;53.254;5.900;2024-02-14T06:08:34;47.22;;;8.65;;
54139;SDS011;40046;53.254;5.900;2024-02-14T06:11:00;44.17;;;8.63;;
54139;SDS011;40046;53.254;5.900;2024-02-14T06:13:26;42.50;;;9.95;;
54139;SDS011;40046;53.254;5.900;2024-02-14T06:15:52;45.90;;;11.02;;
54139;SDS011;40046;53.254;5.900;2024-02-14T06:18:18;54.13;;;10.18;;
54139;SDS011;40046;53.254;5.900;2024-02-14T06:20:44;58.75;;;10.50;;
54139;SDS011;40046;53.254;5.900;2024-02-14T06:23:12;57.80;;;11.23;;
54139;SDS011;40046;53.254;5.900;2024-02-14T06:25:38;60.28;;;10.60;;
54139;SDS011;40046;53.254;5.900;2024-02-14T06:28:04;66.25;;;10.75;;
54139;SDS011;40046;53.254;5.900;2024-02-14T06:30:30;56.22;;;10.38;;
54139;SDS011;40046;53.254;5.900;2024-02-14T06:32:56;59.90;;;9.15;;
54139;SDS011;40046;53.254;5.900;2024-02-14T06:35:26;58.30;;;10.35;;
54139;SDS011;40046;53.254;5.900;2024-02-14T06:37:52;62.97;;;13.52;;
54139;SDS011;40046;53.254;5.900;2024-02-14T06:40:18;45.00;;;8.02;;
54139;SDS011;40046;53.254;5.900;2024-02-14T06:42:44;58.35;;;9.20;;
54139;SDS011;40046;53.254;5.900;2024-02-14T06:45:10;49.97;;;10.75;;
54139;SDS011;40046;53.254;5.900;2024-02-14T06:47:36;45.03;;;8.45;;
54139;SDS011;40046;53.254;5.900;2024-02-14T06:50:03;66.45;;;10.40;;
54139;SDS011;40046;53.254;5.900;2024-02-14T06:52:29;70.78;;;9.90;;
54139;SDS011;40046;53.254;5.900;2024-02-14T06:54:55;69.10;;;11.20;;
54139;SDS011;40046;53.254;5.900;2024-02-14T06:57:21;66.20;;;9.27;;
54139;SDS011;40046;53.254;5.900;2024-02-14T06:59:47;61.30;;;10.38;;
54139;SDS011;40046;53.254;5.900;2024-02-14T07:02:13;59.85;;;9.93;;
54139;SDS011;40046;53.254;5.900;2024-02-14T07:04:40;67.28;;;8.55;;
54139;SDS011;40046;53.254;5.900;2024-02-14T07:07:06;59.17;;;8.43;;
54139;SDS011;40046;53.254;5.900;2024-02-14T07:09:33;61.38;;;9.52;;
54139;SDS011;40046;53.254;5.900;2024-02-14T07:12:01;71.45;;;9.73;;
54139;SDS011;40046;53.254;5.900;2024-02-14T07:14:28;57.28;;;9.25;;
54139;SDS011;40046;53.254;5.900;2024-02-14T07:16:54;64.80;;;9.20;;
54139;SDS011;40046;53.254;5.900;2024-02-14T07:19:20;66.40;;;12.23;;
54139;SDS011;40046;53.254;5.900;2024-02-14T07:21:46;61.38;;;10.60;;
54139;SDS011;40046;53.254;5.900;2024-02-14T07:24:12;63.97;;;9.15;;
54139;SDS011;40046;53.254;5.900;2024-02-14T07:26:38;64.13;;;10.82;;
54139;SDS011;40046;53.254;5.900;2024-02-14T07:29:06;54.13;;;8.30;;
54139;SDS011;40046;53.254;5.900;2024-02-14T07:31:32;66.60;;;9.07;;
54139;SDS011;40046;53.254;5.900;2024-02-14T07:34:00;55.33;;;10.43;;
54139;SDS011;40046;53.254;5.900;2024-02-14T07:36:28;50.25;;;10.70;;
54139;SDS011;40046;53.254;5.900;2024-02-14T07:38:54;62.45;;;9.45;;
54139;SDS011;40046;53.254;5.900;2024-02-14T07:41:21;65.22;;;9.18;;
54139;SDS011;40046;53.254;5.900;2024-02-14T07:43:47;50.75;;;8.77;;
54139;SDS011;40046;53.254;5.900;2024-02-14T07:46:17;55.17;;;8.23;;
54139;SDS011;40046;53.254;5.900;2024-02-14T07:48:43;53.38;;;9.57;;
54139;SDS011;40046;53.254;5.900;2024-02-14T07:51:09;50.75;;;8.93;;
54139;SDS011;40046;53.254;5.900;2024-02-14T07:53:36;57.30;;;9.52;;
54139;SDS011;40046;53.254;5.900;2024-02-14T07:56:02;56.78;;;9.48;;
54139;SDS011;40046;53.254;5.900;2024-02-14T07:58:28;51.70;;;9.52;;
54139;SDS011;40046;53.254;5.900;2024-02-14T08:00:54;57.00;;;8.82;;
54139;SDS011;40046;53.254;5.900;2024-02-14T08:03:20;57.70;;;9.82;;
54139;SDS011;40046;53.254;5.900;2024-02-14T08:05:46;52.05;;;8.45;;
54139;SDS011;40046;53.254;5.900;2024-02-14T08:08:12;56.25;;;9.50;;
54139;SDS011;40046;53.254;5.900;2024-02-14T08:10:39;50.70;;;9.98;;
54139;SDS011;40046;53.254;5.900;2024-02-14T08:13:05;54.85;;;8.93;;
54139;SDS011;40046;53.254;5.900;2024-02-14T08:15:31;53.67;;;10.43;;
54139;SDS011;40046;53.254;5.900;2024-02-14T08:17:57;65.45;;;11.10;;
54139;SDS011;40046;53.254;5.900;2024-02-14T08:20:24;46.22;;;10.13;;
54139;SDS011;40046;53.254;5.900;2024-02-14T08:22:50;51.95;;;9.82;;
54139;SDS011;40046;53.254;5.900;2024-02-14T08:25:17;44.45;;;10.35;;
54139;SDS011;40046;53.254;5.900;2024-02-14T08:27:43;51.45;;;9.90;;
54139;SDS011;40046;53.254;5.900;2024-02-14T08:30:09;53.80;;;10.10;;
54139;SDS011;40046;53.254;5.900;2024-02-14T08:32:36;46.30;;;10.65;;
54139;SDS011;40046;53.254;5.900;2024-02-14T08:35:03;53.97;;;10.80;;
54139;SDS011;40046;53.254;5.900;2024-02-14T08:37:29;48.80;;;11.07;;
54139;SDS011;40046;53.254;5.900;2024-02-14T08:39:56;53.25;;;11.35;;
54139;SDS011;40046;53.254;5.900;2024-02-14T08:42:22;53.50;;;11.98;;
54139;SDS011;40046;53.254;5.900;2024-02-14T08:44:48;49.75;;;11.35;;
54139;SDS011;40046;53.254;5.900;2024-02-14T08:47:14;52.58;;;11.85;;
54139;SDS011;40046;53.254;5.900;2024-02-14T08:49:41;59.78;;;10.43;;
54139;SDS011;40046;53.254;5.900;2024-02-14T08:52:07;42.47;;;10.85;;
54139;SDS011;40046;53.254;5.900;2024-02-14T08:54:34;36.08;;;9.82;;
54139;SDS011;40046;53.254;5.900;2024-02-14T08:57:00;48.55;;;12.00;;
54139;SDS011;40046;53.254;5.900;2024-02-14T08:59:27;49.67;;;12.15;;
54139;SDS011;40046;53.254;5.900;2024-02-14T09:01:54;49.53;;;13.18;;
54139;SDS011;40046;53.254;5.900;2024-02-14T09:04:20;50.97;;;12.10;;
54139;SDS011;40046;53.254;5.900;2024-02-14T09:06:46;46.55;;;11.80;;
54139;SDS011;40046;53.254;5.900;2024-02-14T09:09:12;53.17;;;12.55;;
54139;SDS011;40046;53.254;5.900;2024-02-14T09:11:40;43.08;;;11.88;;
54139;SDS011;40046;53.254;5.900;2024-02-14T09:14:07;46.63;;;11.20;;
54139;SDS011;40046;53.254;5.900;2024-02-14T09:16:33;49.65;;;12.02;;
54139;SDS011;40046;53.254;5.900;2024-02-14T09:18:59;42.05;;;10.27;;
54139;SDS011;40046;53.254;5.900;2024-02-14T09:21:26;58.60;;;12.90;;
54139;SDS011;40046;53.254;5.900;2024-02-14T09:23:56;46.13;;;10.82;;
54139;SDS011;40046;53.254;5.900;2024-02-14T09:26:22;62.72;;;13.40;;
54139;SDS011;40046;53.254;5.900;2024-02-14T09:28:49;45.50;;;12.75;;
54139;SDS011;40046;53.254;5.900;2024-02-14T09:31:18;50.60;;;12.85;;
54139;SDS011;40046;53.254;5.900;2024-02-14T09:33:46;52.33;;;12.35;;
54139;SDS011;40046;53.254;5.900;2024-02-14T09:36:13;47.03;;;12.38;;
54139;SDS011;40046;53.254;5.900;2024-02-14T09:38:42;39.70;;;11.52;;
54139;SDS011;40046;53.254;5.900;2024-02-14T09:41:15;42.20;;;12.25;;
54139;SDS011;40046;53.254;5.900;2024-02-14T09:43:43;45.70;;;10.93;;
54139;SDS011;40046;53.254;5.900;2024-02-14T09:46:13;48.47;;;11.43;;
54139;SDS011;40046;53.254;5.900;2024-02-14T09:48:46;45.70;;;11.65;;
54139;SDS011;40046;53.254;5.900;2024-02-14T09:51:12;48.42;;;10.57;;
54139;SDS011;40046;53.254;5.900;2024-02-14T09:53:39;45.22;;;10.77;;
54139;SDS011;40046;53.254;5.900;2024-02-14T09:56:06;41.28;;;11.80;;
54139;SDS011;40046;53.254;5.900;2024-02-14T09:58:35;40.70;;;10.68;;
54139;SDS011;40046;53.254;5.900;2024-02-14T10:01:02;34.83;;;9.90;;
54139;SDS011;40046;53.254;5.900;2024-02-14T10:03:29;39.90;;;10.38;;
54139;SDS011;40046;53.254;5.900;2024-02-14T10:05:55;41.17;;;10.60;;
54139;SDS011;40046;53.254;5.900;2024-02-14T10:08:22;38.60;;;10.38;;
54139;SDS011;40046;53.254;5.900;2024-02-14T10:10:49;34.38;;;9.82;;
54139;SDS011;40046;53.254;5.900;2024-02-14T10:13:15;26.70;;;9.43;;
54139;SDS011;40046;53.254;5.900;2024-02-14T10:15:41;28.38;;;8.70;;
54139;SDS011;40046;53.254;5.900;2024-02-14T10:18:07;26.20;;;8.32;;
54139;SDS011;40046;53.254;5.900;2024-02-14T10:20:37;20.00;;;8.35;;
54139;SDS011;40046;53.254;5.900;2024-02-14T10:23:10;21.60;;;9.00;;
54139;SDS011;40046;53.254;5.900;2024-02-14T10:25:37;31.95;;;10.20;;
54139;SDS011;40046;53.254;5.900;2024-02-14T10:28:06;27.17;;;9.48;;
54139;SDS011;40046;53.254;5.900;2024-02-14T10:30:36;29.88;;;8.98;;
54139;SDS011;40046;53.254;5.900;2024-02-14T10:33:07;29.20;;;9.82;;
54139;SDS011;40046;53.254;5.900;2024-02-14T10:35:33;28.08;;;9.07;;
54139;SDS011;40046;53.254;5.900;2024-02-14T10:38:06;25.80;;;8.33;;
54139;SDS011;40046;53.254;5.900;2024-02-14T10:40:37;26.90;;;8.95;;
54139;SDS011;40046;53.254;5.900;2024-02-14T10:43:08;25.02;;;9.32;;
54139;SDS011;40046;53.254;5.900;2024-02-14T10:45:35;38.85;;;10.10;;
54139;SDS011;40046;53.254;5.900;2024-02-14T10:48:03;33.53;;;11.15;;
54139;SDS011;40046;53.254;5.900;2024-02-14T10:50:32;33.55;;;10.57;;
54139;SDS011;40046;53.254;5.900;2024-02-14T10:53:00;28.90;;;9.38;;
54139;SDS011;40046;53.254;5.900;2024-02-14T10:55:29;36.45;;;9.88;;
54139;SDS011;40046;53.254;5.900;2024-02-14T10:57:57;33.85;;;9.68;;
54139;SDS011;40046;53.254;5.900;2024-02-14T11:00:23;42.58;;;10.35;;
54139;SDS011;40046;53.254;5.900;2024-02-14T11:02:49;25.73;;;9.30;;
54139;SDS011;40046;53.254;5.900;2024-02-14T11:05:18;31.35;;;10.98;;
54139;SDS011;40046;53.254;5.900;2024-02-14T11:07:47;23.65;;;8.10;;
54139;SDS011;40046;53.254;5.900;2024-02-14T11:10:17;22.35;;;7.65;;
54139;SDS011;40046;53.254;5.900;2024-02-14T11:12:45;23.15;;;7.28;;
54139;SDS011;40046;53.254;5.900;2024-02-14T11:15:22;36.80;;;9.35;;
54139;SDS011;40046;53.254;5.900;2024-02-14T11:18:02;18.90;;;7.25;;
54139;SDS011;40046;53.254;5.900;2024-02-14T11:20:32;21.13;;;7.68;;
54139;SDS011;40046;53.254;5.900;2024-02-14T11:23:02;21.30;;;7.13;;
54139;SDS011;40046;53.254;5.900;2024-02-14T11:25:30;14.88;;;6.00;;
54139;SDS011;40046;53.254;5.900;2024-02-14T11:27:57;23.52;;;7.68;;
54139;SDS011;40046;53.254;5.900;2024-02-14T11:30:30;16.63;;;6.43;;
54139;SDS011;40046;53.254;5.900;2024-02-14T11:35:41;24.52;;;8.02;;
54139;SDS011;40046;53.254;5.900;2024-02-14T11:38:08;42.65;;;11.13;;
54139;SDS011;40046;53.254;5.900;2024-02-14T11:40:35;27.40;;;9.23;;
54139;SDS011;40046;53.254;5.900;2024-02-14T11:43:03;35.03;;;9.68;;
54139;SDS011;40046;53.254;5.900;2024-02-14T11:45:30;23.23;;;7.72;;
54139;SDS011;40046;53.254;5.900;2024-02-14T11:47:56;22.67;;;6.50;;
54139;SDS011;40046;53.254;5.900;2024-02-14T11:50:22;21.33;;;6.43;;
54139;SDS011;40046;53.254;5.900;2024-02-14T11:52:48;24.70;;;6.43;;
54139;SDS011;40046;53.254;5.900;2024-02-14T11:55:17;19.20;;;5.50;;
54139;SDS011;40046;53.254;5.900;2024-02-14T11:57:43;21.20;;;6.25;;
54139;SDS011;40046;53.254;5.900;2024-02-14T12:00:12;15.85;;;5.78;;
54139;SDS011;40046;53.254;5.900;2024-02-14T12:02:39;17.77;;;5.50;;
54139;SDS011;40046;53.254;5.900;2024-02-14T12:05:05;15.95;;;5.68;;
54139;SDS011;40046;53.254;5.900;2024-02-14T12:07:31;20.45;;;6.07;;
54139;SDS011;40046;53.254;5.900;2024-02-14T12:09:57;18.48;;;6.38;;
54139;SDS011;40046;53.254;5.900;2024-02-14T12:12:24;19.67;;;6.07;;
54139;SDS011;40046;53.254;5.900;2024-02-14T12:14:53;16.42;;;6.45;;
54139;SDS011;40046;53.254;5.900;2024-02-14T12:17:19;18.20;;;7.55;;
54139;SDS011;40046;53.254;5.900;2024-02-14T12:19:46;13.50;;;5.72;;
54139;SDS011;40046;53.254;5.900;2024-02-14T12:22:13;17.40;;;7.35;;
54139;SDS011;40046;53.254;5.900;2024-02-14T12:24:43;19.13;;;9.95;;
54139;SDS011;40046;53.254;5.900;2024-02-14T12:27:10;22.40;;;11.23;;
54139;SDS011;40046;53.254;5.900;2024-02-14T12:29:36;19.30;;;10.57;;
54139;SDS011;40046;53.254;5.900;2024-02-14T12:32:05;18.60;;;9.88;;
54139;SDS011;40046;53.254;5.900;2024-02-14T12:34:32;21.98;;;12.63;;
54139;SDS011;40046;53.254;5.900;2024-02-14T12:36:58;26.65;;;13.68;;
54139;SDS011;40046;53.254;5.900;2024-02-14T12:39:28;24.92;;;13.43;;
54139;SDS011;40046;53.254;5.900;2024-02-14T12:41:55;22.90;;;14.35;;
54139;SDS011;40046;53.254;5.900;2024-02-14T12:44:21;20.35;;;13.80;;
54139;SDS011;40046;53.254;5.900;2024-02-14T12:46:47;24.40;;;14.60;;
54139;SDS011;40046;53.254;5.900;2024-02-14T12:49:13;18.27;;;13.10;;
54139;SDS011;40046;53.254;5.900;2024-02-14T12:51:39;22.48;;;14.10;;
54139;SDS011;40046;53.254;5.900;2024-02-14T12:54:06;24.73;;;14.10;;
54139;SDS011;40046;53.254;5.900;2024-02-14T12:56:37;25.33;;;14.18;;
54139;SDS011;40046;53.254;5.900;2024-02-14T12:59:03;20.02;;;12.63;;
54139;SDS011;40046;53.254;5.900;2024-02-14T13:01:29;21.88;;;13.32;;
54139;SDS011;40046;53.254;5.900;2024-02-14T13:03:56;19.42;;;12.38;;
54139;SDS011;40046;53.254;5.900;2024-02-14T13:06:22;22.90;;;11.85;;
54139;SDS011;40046;53.254;5.900;2024-02-14T13:08:48;21.20;;;12.10;;
54139;SDS011;40046;53.254;5.900;2024-02-14T13:11:14;24.48;;;13.00;;
54139;SDS011;40046;53.254;5.900;2024-02-14T13:13:44;19.27;;;11.93;;
54139;SDS011;40046;53.254;5.900;2024-02-14T13:16:10;23.60;;;12.10;;
54139;SDS011;40046;53.254;5.900;2024-02-14T13:18:36;27.95;;;13.18;;
54139;SDS011;40046;53.254;5.900;2024-02-14T13:21:02;24.23;;;11.23;;
54139;SDS011;40046;53.254;5.900;2024-02-14T13:23:28;22.70;;;11.25;;
54139;SDS011;40046;53.254;5.900;2024-02-14T13:25:55;20.95;;;10.45;;
54139;SDS011;40046;53.254;5.900;2024-02-14T13:28:21;26.73;;;10.60;;
54139;SDS011;40046;53.254;5.900;2024-02-14T13:30:47;21.05;;;9.55;;
54139;SDS011;40046;53.254;5.900;2024-02-14T13:33:13;21.58;;;8.57;;
54139;SDS011;40046;53.254;5.900;2024-02-14T13:35:39;24.10;;;9.00;;
54139;SDS011;40046;53.254;5.900;2024-02-14T13:38:06;20.05;;;9.00;;
54139;SDS011;40046;53.254;5.900;2024-02-14T13:40:32;18.50;;;8.90;;
54139;SDS011;40046;53.254;5.900;2024-02-14T13:42:58;19.65;;;8.85;;
54139;SDS011;40046;53.254;5.900;2024-02-14T13:45:25;19.67;;;8.27;;
54139;SDS011;40046;53.254;5.900;2024-02-14T13:47:51;19.20;;;9.05;;
54139;SDS011;40046;53.254;5.900;2024-02-14T13:50:18;17.95;;;8.05;;
54139;SDS011;40046;53.254;5.900;2024-02-14T13:52:44;14.38;;;7.57;;
54139;SDS011;40046;53.254;5.900;2024-02-14T13:55:11;17.67;;;7.32;;
54139;SDS011;40046;53.254;5.900;2024-02-14T13:57:37;21.25;;;7.05;;
54139;SDS011;40046;53.254;5.900;2024-02-14T14:00:04;13.35;;;5.95;;
54139;SDS011;40046;53.254;5.900;2024-02-14T14:02:37;11.02;;;5.63;;
54139;SDS011;40046;53.254;5.900;2024-02-14T14:05:06;9.48;;;5.32;;
54139;SDS011;40046;53.254;5.900;2024-02-14T14:07:34;10.68;;;5.07;;
54139;SDS011;40046;53.254;5.900;2024-02-14T14:10:05;14.00;;;5.95;;
54139;SDS011;40046;53.254;5.900;2024-02-14T14:12:31;11.35;;;5.10;;
54139;SDS011;40046;53.254;5.900;2024-02-14T14:14:57;10.73;;;5.80;;
54139;SDS011;40046;53.254;5.900;2024-02-14T14:17:24;7.65;;;5.88;;
54139;SDS011;40046;53.254;5.900;2024-02-14T14:19:51;9.02;;;6.15;;
54139;SDS011;40046;53.254;5.900;2024-02-14T14:22:17;12.63;;;6.60;;
54139;SDS011;40046;53.254;5.900;2024-02-14T14:24:43;8.25;;;5.22;;
54139;SDS011;40046;53.254;5.900;2024-02-14T14:27:09;8.25;;;5.40;;
54139;SDS011;40046;53.254;5.900;2024-02-14T14:29:39;10.43;;;6.30;;
54139;SDS011;40046;53.254;5.900;2024-02-14T14:32:08;10.10;;;7.00;;